Skip Navigation LinksHome page > Weather > Current weather Skip Navigation Links

Current Weather

Rock Co, Janesville, Wis.

For information only: do not use for flight planning or navigation.
Latest weather
Observation time Monday, October 18, 2021 2:45 PM CDT
Local time Monday, October 18, 2021 3:01 PM CDT
Flight conditions Visual Meteorological Conditions
Winds
Wind direction West-Southwest (250°)
Wind speed 8 mph
Visibility 10 mi.
Sky condition
Ceiling unlimited
Sky clear
Temperature 73°F
Dewpoint 36°F
Altimeter 30.06 in.Hg
Derived measurements
Relative humidity 25%
Density altitude 1690 ft.
METAR KJVL 181945Z 25007KT 10SM CLR 23/02 A3006

Settings

Location code

InnerDrive.Weather 4.0.6770.0 Release CLR 4.0.30319.42000
Copyright ©2018 Inner Drive Technology. All rights reserved. Portions Copyright ©1986-2018 David Braverman.

Find weather

Site navigation


Skip Navigation Links

Place info

Page info

PayPal - The safer, easier way to pay online!

Return home.

Copyright ©2021 Inner Drive Technology. Purveyors of fine, hand-crafted computer software. Page printed 2021-10-18T20:01:31 UTC.